createdAt,value
2023-05-11T00:02:00.723Z,2.90
2023-05-11T00:07:02.993Z,2.50
2023-05-11T00:12:05.877Z,2.30
2023-05-11T00:17:07.959Z,2.50
2023-05-11T00:22:10.256Z,3.20
2023-05-11T00:27:12.429Z,3.40
2023-05-11T00:32:14.614Z,3.50
2023-05-11T00:37:17.031Z,3.60
2023-05-11T00:42:19.284Z,3.20
2023-05-11T00:47:21.473Z,3.70
2023-05-11T00:52:24.474Z,3.90
2023-05-11T00:57:27.075Z,3.60
2023-05-11T01:02:30.639Z,3.70
2023-05-11T01:08:01.549Z,4.30
2023-05-11T01:13:51.357Z,3.40
2023-05-11T01:18:59.534Z,3.70
2023-05-11T01:24:26.746Z,3.30
2023-05-11T01:29:50.432Z,3.40
2023-05-11T01:35:01.321Z,2.30
2023-05-11T01:40:10.371Z,2.90
2023-05-11T01:45:15.315Z,3.40
2023-05-11T01:50:19.361Z,2.80
2023-05-11T02:00:25.768Z,3.10
2023-05-11T02:05:30.030Z,2.80
2023-05-11T02:15:39.943Z,2.90
2023-05-11T02:20:44.122Z,2.90
2023-05-11T02:30:53.934Z,2.30
2023-05-11T02:35:57.799Z,2.30
2023-05-11T02:41:07.251Z,2.50
2023-05-11T02:46:16.179Z,3.10
2023-05-11T02:51:24.259Z,2.50
2023-05-11T02:56:26.850Z,2.60
2023-05-11T03:01:30.629Z,2.60
2023-05-11T03:06:33.674Z,2.40
2023-05-11T03:11:37.090Z,2.80
2023-05-11T03:16:40.156Z,2.70
2023-05-11T03:21:42.900Z,2.70
2023-05-11T03:26:46.204Z,3.00
2023-05-11T03:31:51.088Z,2.10
2023-05-11T03:36:54.672Z,2.90
2023-05-11T03:41:58.597Z,3.10
2023-05-11T03:47:03.446Z,2.90
2023-05-11T03:52:07.073Z,2.90
2023-05-11T03:57:10.574Z,3.40
2023-05-11T04:02:12.897Z,3.20
2023-05-11T04:07:14.941Z,7.00
2023-05-11T04:12:18.763Z,11.10
2023-05-11T04:17:20.791Z,2.80
2023-05-11T04:22:22.926Z,3.30
2023-05-11T04:27:25.332Z,3.00
2023-05-11T04:32:28.779Z,2.60
2023-05-11T04:37:31.333Z,2.70
2023-05-11T04:42:33.355Z,2.80
2023-05-11T04:47:35.505Z,3.80
2023-05-11T04:52:37.673Z,3.10
2023-05-11T04:57:39.757Z,3.50
2023-05-11T05:02:41.876Z,3.20
2023-05-11T05:07:44.330Z,3.40
2023-05-11T05:12:47.253Z,2.90
2023-05-11T05:17:49.454Z,3.00
2023-05-11T05:22:51.707Z,3.00
2023-05-11T05:27:53.742Z,2.60
2023-05-11T05:32:56.065Z,2.60
2023-05-11T05:37:58.258Z,2.80
2023-05-11T05:43:00.962Z,3.60
2023-05-11T05:48:05.653Z,18.20
2023-05-11T05:53:07.989Z,4.10
2023-05-11T05:58:10.172Z,14.90
2023-05-11T06:03:12.468Z,3.50
2023-05-11T06:08:14.744Z,3.50
2023-05-11T06:13:16.942Z,3.80
2023-05-11T06:18:19.378Z,2.80
2023-05-11T06:23:21.704Z,4.70
2023-05-11T06:28:24.191Z,2.90
2023-05-11T06:33:26.493Z,3.30
2023-05-11T06:38:28.868Z,3.00
2023-05-11T06:43:31.160Z,5.00
2023-05-11T06:48:33.341Z,8.80
2023-05-11T06:53:35.527Z,11.60
2023-05-11T06:58:37.711Z,19.90
2023-05-11T07:03:39.993Z,2.20
2023-05-11T07:08:42.080Z,2.00
2023-05-11T07:13:44.985Z,2.20
2023-05-11T07:18:47.238Z,2.80
2023-05-11T07:23:49.564Z,2.20
2023-05-11T07:28:51.842Z,11.20
2023-05-11T07:33:54.023Z,2.70
2023-05-11T07:38:57.434Z,3.10
2023-05-11T07:44:03.817Z,3.70
2023-05-11T07:49:15.842Z,2.40
2023-05-11T07:54:22.929Z,2.60
2023-05-11T07:59:25.322Z,2.70
2023-05-11T08:04:27.947Z,2.70
2023-05-11T08:09:30.304Z,2.30
2023-05-11T08:14:32.793Z,2.00
2023-05-11T08:19:34.981Z,1.70
2023-05-11T08:24:37.269Z,2.40
2023-05-11T08:29:39.349Z,2.10
2023-05-11T08:34:41.515Z,3.10
2023-05-11T08:39:47.720Z,1.90
2023-05-11T08:44:51.843Z,2.30
2023-05-11T08:49:54.126Z,2.60
2023-05-11T08:54:56.317Z,1.80
2023-05-11T09:00:01.593Z,1.50
2023-05-11T09:05:04.370Z,1.90
2023-05-11T09:10:07.963Z,1.20
2023-05-11T09:15:10.886Z,2.30
2023-05-11T09:20:12.966Z,2.00
2023-05-11T09:25:18.882Z,7.30
2023-05-11T09:30:23.721Z,1.80
2023-05-11T09:35:33.017Z,1.90
2023-05-11T09:40:43.164Z,2.60
2023-05-11T09:45:50.312Z,2.20
2023-05-11T09:50:59.561Z,2.30
2023-05-11T09:56:01.654Z,2.60
2023-05-11T10:01:03.748Z,2.10
2023-05-11T10:06:06.424Z,2.00
2023-05-11T10:11:08.911Z,2.00
2023-05-11T10:16:15.038Z,10.60
2023-05-11T10:21:17.897Z,3.70
2023-05-11T10:26:20.488Z,1.70
2023-05-11T10:31:24.294Z,1.80
2023-05-11T10:36:27.822Z,2.10
2023-05-11T10:42:01.098Z,2.10
2023-05-11T10:47:05.980Z,4.50
2023-05-11T10:52:17.992Z,1.40
2023-05-11T10:57:22.941Z,1.90
2023-05-11T11:02:31.216Z,5.40
2023-05-11T11:07:58.298Z,2.50
2023-05-11T11:13:11.479Z,2.80
2023-05-11T11:18:27.342Z,1.60
2023-05-11T11:23:49.852Z,17.90
2023-05-11T11:29:00.239Z,1.60
2023-05-11T11:34:27.405Z,1.90
2023-05-11T11:39:46.171Z,1.60
2023-05-11T11:44:48.354Z,2.40
2023-05-11T11:49:53.017Z,1.70
2023-05-11T11:54:56.711Z,1.80
2023-05-11T12:00:06.749Z,1.40
2023-05-11T12:05:13.583Z,1.90
2023-05-11T12:10:18.296Z,3.50
2023-05-11T12:15:33.606Z,1.40
2023-05-11T12:20:35.796Z,1.50
2023-05-11T12:25:37.874Z,51.00
2023-05-11T12:30:40.057Z,2.00
2023-05-11T12:35:43.677Z,2.20
2023-05-11T12:40:50.490Z,1.60
2023-05-11T12:45:52.815Z,1.50
2023-05-11T12:50:54.945Z,2.10
2023-05-11T12:56:00.504Z,1.70
2023-05-11T13:01:02.805Z,1.70
2023-05-11T13:06:08.557Z,2.80
2023-05-11T13:11:28.141Z,1.70
2023-05-11T13:16:34.170Z,2.90
2023-05-11T13:21:36.314Z,1.80
2023-05-11T13:26:38.403Z,1.80
2023-05-11T13:31:51.926Z,1.80
2023-05-11T13:36:54.225Z,8.40
2023-05-11T13:41:56.407Z,2.00
2023-05-11T13:47:01.457Z,2.30
2023-05-11T13:52:04.508Z,1.70
2023-05-11T13:57:07.071Z,1.80
2023-05-11T14:02:09.690Z,1.90
2023-05-11T14:07:12.149Z,1.80
2023-05-11T14:12:14.642Z,1.50
2023-05-11T14:17:25.964Z,1.70
2023-05-11T14:22:29.059Z,2.20
2023-05-11T14:27:31.135Z,1.70
2023-05-11T14:32:33.340Z,5.10
2023-05-11T14:37:38.371Z,6.20
2023-05-11T14:42:40.453Z,9.00
2023-05-11T14:47:43.269Z,12.60
2023-05-11T14:52:46.347Z,18.30
2023-05-11T14:57:48.548Z,22.60
2023-05-11T15:02:51.560Z,28.40
2023-05-11T15:07:53.822Z,31.20
2023-05-11T15:12:56.111Z,35.80
2023-05-11T15:17:58.237Z,36.50
2023-05-11T15:23:00.485Z,36.70
2023-05-11T15:28:03.492Z,34.50
2023-05-11T15:33:05.667Z,30.80
2023-05-11T15:38:07.881Z,29.60
2023-05-11T15:43:10.140Z,28.40
2023-05-11T15:48:12.320Z,25.80
2023-05-11T15:53:14.711Z,19.20
2023-05-11T15:58:17.918Z,17.90
2023-05-11T16:03:20.639Z,15.20
2023-05-11T16:08:22.913Z,12.20
2023-05-11T16:13:24.973Z,9.90
2023-05-11T16:18:29.181Z,8.30
2023-05-11T16:23:31.596Z,8.00
2023-05-11T16:28:33.779Z,6.40
2023-05-11T16:33:37.349Z,5.40
2023-05-11T16:38:39.397Z,4.00
2023-05-11T16:43:42.488Z,3.10
2023-05-11T16:48:44.988Z,2.90
2023-05-11T16:53:47.476Z,6.40
2023-05-11T16:58:49.654Z,2.30
2023-05-11T17:03:51.901Z,2.30
2023-05-11T17:08:54.665Z,2.30
2023-05-11T17:13:56.833Z,2.00
2023-05-11T17:18:59.243Z,2.30
2023-05-11T17:24:01.605Z,2.60
2023-05-11T17:29:03.793Z,3.30
2023-05-11T17:34:08.013Z,3.40
2023-05-11T17:39:11.456Z,1.50
2023-05-11T17:44:13.618Z,2.20
2023-05-11T17:49:15.803Z,3.10
2023-05-11T17:54:17.990Z,3.00
2023-05-11T17:59:21.099Z,2.40
2023-05-11T18:04:23.207Z,3.60
2023-05-11T18:09:25.289Z,2.70
2023-05-11T18:14:27.450Z,2.50
2023-05-11T18:19:30.117Z,2.40
2023-05-11T18:24:32.220Z,2.80
2023-05-11T18:29:34.305Z,2.50
2023-05-11T18:34:40.687Z,3.80
2023-05-11T18:39:42.691Z,2.50
2023-05-11T18:44:44.644Z,3.20
2023-05-11T18:49:48.443Z,3.10
2023-05-11T18:54:51.376Z,10.70
2023-05-11T18:59:53.962Z,3.80
2023-05-11T19:04:56.657Z,4.40
2023-05-11T19:09:58.953Z,4.30
2023-05-11T19:15:01.033Z,4.40
2023-05-11T19:20:03.513Z,4.70
2023-05-11T19:25:06.927Z,4.10
2023-05-11T19:30:09.949Z,3.50
2023-05-11T19:35:13.553Z,3.50
2023-05-11T19:45:21.407Z,4.70
2023-05-11T19:50:24.634Z,8.60
2023-05-11T19:55:27.206Z,8.60
2023-05-11T20:00:29.708Z,6.60
2023-05-11T20:05:31.976Z,5.30
2023-05-11T20:10:35.083Z,4.00
2023-05-11T20:15:37.577Z,3.80
2023-05-11T20:20:39.586Z,3.10
2023-05-11T20:25:43.729Z,3.50
2023-05-11T20:35:47.950Z,3.70
2023-05-11T20:40:50.034Z,4.30
2023-05-11T20:45:52.369Z,5.00
2023-05-11T20:50:55.179Z,7.10
2023-05-11T20:55:57.404Z,6.60
2023-05-11T21:00:59.561Z,7.30
2023-05-11T21:06:01.813Z,6.50
2023-05-11T21:11:04.328Z,6.30
2023-05-11T21:16:07.753Z,4.70
2023-05-11T21:21:09.863Z,4.40
2023-05-11T21:26:11.946Z,4.80
2023-05-11T21:31:14.150Z,6.40
2023-05-11T21:36:16.215Z,6.50
2023-05-11T21:41:18.191Z,7.80
2023-05-11T21:46:20.541Z,9.20
2023-05-11T21:51:22.657Z,8.00
2023-05-11T21:56:25.076Z,6.60
2023-05-11T22:01:27.075Z,6.30
2023-05-11T22:06:29.316Z,7.40
2023-05-11T22:11:33.041Z,9.80
2023-05-11T22:16:35.138Z,11.40
2023-05-11T22:21:37.202Z,10.20
2023-05-11T22:26:39.697Z,7.80
2023-05-11T22:31:43.990Z,7.10
2023-05-11T22:36:47.744Z,5.30
2023-05-11T22:41:49.832Z,5.20
2023-05-11T22:46:52.322Z,4.80
2023-05-11T22:51:58.186Z,3.60
2023-05-11T22:57:01.295Z,3.60
2023-05-11T23:02:04.135Z,4.80
2023-05-11T23:07:07.408Z,4.00
2023-05-11T23:12:09.600Z,5.30
2023-05-11T23:17:12.221Z,4.20
2023-05-11T23:22:14.780Z,3.60
2023-05-11T23:27:16.964Z,4.10
2023-05-11T23:32:19.248Z,4.50
2023-05-11T23:37:21.946Z,3.80
2023-05-11T23:42:24.029Z,4.10
2023-05-11T23:47:26.590Z,3.80
2023-05-11T23:52:29.419Z,3.50
2023-05-11T23:57:32.034Z,3.60
